Time;durP1;ratioP1;P1;durP2;ratioP2;P2;SDS_P1;SDS_P2;PMS_P1;PMS_P2;Temp;Humidity;BMP_temperature;BMP_pressure;BME280_temperature;BME280_humidity;BME280_pressure;Samples;Min_cycle;Max_cycle;Signal;HPM_P1;HPM_P2
2022/01/22 00:01:43;;;;;;;16.70;7.18;;;6.00;99.90;;;;;;5093420;28;20039;-71
2022/01/22 00:04:09;;;;;;;19.90;7.60;;;5.90;99.90;;;;;;5094443;28;20422;-71
2022/01/22 00:06:35;;;;;;;15.38;6.90;;;5.70;99.90;;;;;;5094723;28;20089;-71
2022/01/22 00:09:02;;;;;;;16.27;7.35;;;5.70;99.90;;;;;;5093055;28;20028;-71
2022/01/22 00:11:34;;;;;;;15.00;7.10;;;5.80;99.90;;;;;;5074454;28;20036;-71
2022/01/22 00:16:45;;;;;;;17.65;8.00;;;5.90;99.90;;;;;;5074377;28;20473;-71
2022/01/22 00:19:10;;;;;;;21.83;7.45;;;6.00;99.90;;;;;;5073725;28;20036;-71
2022/01/22 00:21:37;;;;;;;17.75;7.68;;;5.70;99.90;;;;;;5072669;28;20040;-71
2022/01/22 00:24:09;;;;;;;15.38;6.57;;;5.60;99.90;;;;;;5074161;28;20535;-71
2022/01/22 00:26:35;;;;;;;20.38;7.88;;;5.50;99.90;;;;;;5082945;28;20031;-71
2022/01/22 00:29:01;;;;;;;14.55;8.63;;;5.50;99.90;;;;;;5094801;28;20032;-71
2022/01/22 00:31:27;;;;;;;20.65;7.20;;;5.60;99.90;;;;;;5094910;28;20039;-71
2022/01/22 00:33:53;;;;;;;16.17;7.35;;;5.50;99.90;;;;;;5093878;28;20032;-71
2022/01/22 00:36:19;;;;;;;21.27;7.70;;;5.50;99.90;;;;;;5094195;28;20537;-71
2022/01/22 00:38:45;;;;;;;16.58;7.30;;;5.50;99.90;;;;;;5094152;28;20020;-71
2022/01/22 00:41:11;;;;;;;18.00;7.35;;;5.40;99.90;;;;;;5094076;28;20475;-71
2022/01/22 00:43:37;;;;;;;18.92;7.57;;;5.40;99.90;;;;;;5092628;28;20119;-71
2022/01/22 00:46:03;;;;;;;17.42;7.47;;;5.40;99.90;;;;;;5092323;28;20103;-72
2022/01/22 00:48:29;;;;;;;22.58;8.13;;;5.50;99.90;;;;;;5093975;28;20024;-71
2022/01/22 00:50:56;;;;;;;19.67;7.47;;;5.50;99.90;;;;;;5093768;28;20036;-71
2022/01/22 00:53:24;;;;;;;26.85;7.88;;;5.60;99.90;;;;;;5092497;28;20070;-71
2022/01/22 00:55:50;;;;;;;17.38;8.18;;;5.50;99.90;;;;;;5092378;28;20067;-71
2022/01/22 00:58:16;;;;;;;17.60;7.90;;;5.50;99.90;;;;;;5092448;28;20104;-71
2022/01/22 01:00:41;;;;;;;15.60;8.23;;;5.40;99.90;;;;;;5092101;28;20472;-71
2022/01/22 01:03:08;;;;;;;22.58;8.88;;;5.50;99.90;;;;;;5092231;28;20043;-70
2022/01/22 01:05:34;;;;;;;17.38;8.05;;;5.40;99.90;;;;;;5093469;28;20034;-71
2022/01/22 01:08:00;;;;;;;18.55;9.88;;;5.50;99.90;;;;;;5093526;28;20111;-71
2022/01/22 01:10:27;;;;;;;21.73;9.63;;;5.40;99.90;;;;;;5091830;28;20113;-71
2022/01/22 01:12:52;;;;;;;25.63;10.18;;;5.50;99.90;;;;;;5092095;28;20077;-71
2022/01/22 01:15:57;;;;;;;17.08;8.27;;;5.50;99.90;;;;;;5091853;28;20020;-71
2022/01/22 01:34:17;;;;;;;27.98;10.88;;;5.50;99.90;;;;;;5091739;28;20092;-71
2022/01/22 01:36:44;;;;;;;18.60;10.15;;;5.50;99.90;;;;;;5091917;28;20076;-71
2022/01/22 01:39:16;;;;;;;18.77;9.95;;;5.60;99.90;;;;;;5091868;28;20023;-71
2022/01/22 01:42:00;;;;;;;23.00;9.93;;;5.60;99.90;;;;;;5093015;28;20032;-71
2022/01/22 01:44:27;;;;;;;26.67;11.48;;;5.50;99.90;;;;;;5090698;28;20028;-71
2022/01/22 01:47:08;;;;;;;26.73;10.63;;;5.50;99.90;;;;;;5092826;28;20024;-71
2022/01/22 01:49:35;;;;;;;28.27;11.00;;;5.40;99.90;;;;;;5091557;28;20112;-71
2022/01/22 01:52:07;;;;;;;24.20;11.15;;;5.40;99.90;;;;;;5091400;28;20028;-71
2022/01/22 01:59:51;;;;;;;22.88;10.30;;;5.50;99.90;;;;;;5091437;28;20039;-71
2022/01/22 02:02:42;;;;;;;;;;;5.50;99.90;;;;;;5093150;28;20506;-71
2022/01/22 02:05:11;;;;;;;18.67;10.93;;;5.40;99.90;;;;;;5091614;28;19908;-71
2022/01/22 02:07:39;;;;;;;23.52;10.43;;;5.40;99.90;;;;;;5091575;28;20044;-71
2022/01/22 02:10:15;;;;;;;24.20;10.20;;;5.40;99.90;;;;;;5080493;28;20039;-71
2022/01/22 02:23:58;;;;;;;24.98;11.98;;;5.50;99.90;;;;;;5072591;28;20489;-72
2022/01/22 02:26:28;;;;;;;20.67;12.07;;;5.50;99.90;;;;;;5059032;28;20024;-71
2022/01/22 02:28:54;;;;;;;25.23;12.43;;;5.50;99.90;;;;;;5070898;28;20056;-71
2022/01/22 02:31:41;;;;;;;28.52;13.43;;;5.50;99.90;;;;;;5087783;28;20037;-71
2022/01/22 02:34:24;;;;;;;23.00;12.50;;;5.50;99.90;;;;;;5087950;28;20060;-71
2022/01/22 02:37:07;;;;;;;26.55;13.32;;;5.50;99.90;;;;;;5072327;28;20029;-71
2022/01/22 02:40:11;;;;;;;28.17;13.07;;;5.50;99.90;;;;;;5088027;28;20056;-71
2022/01/22 02:42:32;;;;;;;;;;;5.50;99.90;;;;;;5067932;28;20028;-71
2022/01/22 02:44:59;;;;;;;22.17;14.02;;;5.60;99.90;;;;;;5071127;28;19916;-71
2022/01/22 02:47:26;;;;;;;23.35;12.82;;;5.60;99.90;;;;;;5071016;28;20116;-71
2022/01/22 02:49:52;;;;;;;28.25;13.02;;;5.60;99.90;;;;;;5070962;28;20124;-71
2022/01/22 02:52:19;;;;;;;21.42;12.40;;;5.80;99.90;;;;;;5070799;28;20064;-71
2022/01/22 02:54:47;;;;;;;28.05;12.98;;;5.90;99.90;;;;;;5071338;28;20418;-72
2022/01/22 02:57:13;;;;;;;26.50;12.93;;;5.80;99.90;;;;;;5091142;28;20449;-71
2022/01/22 02:59:41;;;;;;;29.45;13.95;;;5.70;99.90;;;;;;5074994;28;20036;-71
2022/01/22 03:02:12;;;;;;;28.85;13.98;;;5.60;99.90;;;;;;5091170;28;20484;-71
2022/01/22 03:04:39;;;;;;;23.92;14.27;;;5.50;99.90;;;;;;5091430;28;20123;-71
2022/01/22 03:07:06;;;;;;;27.20;14.73;;;5.40;99.90;;;;;;5091056;28;20028;-71
2022/01/22 03:09:39;;;;;;;33.90;14.63;;;5.50;99.90;;;;;;5080842;28;20031;-71
2022/01/22 03:22:19;;;;;;;27.00;15.27;;;5.70;99.90;;;;;;5094293;28;20085;-71
2022/01/22 03:27:40;;;;;;;26.88;14.68;;;5.70;99.90;;;;;;5020136;28;20493;-71
2022/01/22 03:30:07;;;;;;;31.20;16.00;;;5.70;99.90;;;;;;5073866;28;20050;-71
2022/01/22 03:32:40;;;;;;;30.10;14.38;;;5.60;99.90;;;;;;5073739;28;20028;-71
2022/01/22 03:35:12;;;;;;;33.88;16.20;;;5.70;99.90;;;;;;5074000;28;20163;-71
2022/01/22 03:37:40;;;;;;;32.35;17.70;;;5.60;99.90;;;;;;5090520;28;20081;-71
2022/01/22 03:40:08;;;;;;;24.60;16.95;;;5.60;99.90;;;;;;5073642;28;20029;-71
2022/01/22 03:42:35;;;;;;;34.53;16.73;;;5.60;99.90;;;;;;5073583;28;20040;-71
2022/01/22 03:45:06;;;;;;;29.40;17.65;;;5.80;99.90;;;;;;5074916;28;20024;-71
2022/01/22 03:47:32;;;;;;;34.25;17.30;;;5.80;99.90;;;;;;5073744;28;20032;-71
2022/01/22 03:49:59;;;;;;;32.55;16.67;;;5.80;99.90;;;;;;5073209;28;20035;-71
2022/01/22 03:52:25;;;;;;;29.17;16.63;;;5.80;99.90;;;;;;5073490;28;20427;-71
2022/01/22 03:54:51;;;;;;;35.42;17.17;;;5.80;99.90;;;;;;5073103;28;20028;-71
2022/01/22 03:57:37;;;;;;;28.42;16.95;;;5.80;99.90;;;;;;5073581;28;20032;-71
2022/01/22 04:00:07;;;;;;;35.58;19.27;;;5.70;99.90;;;;;;5074605;28;20028;-71
2022/01/22 04:05:29;;;;;;;35.38;19.30;;;5.90;99.90;;;;;;5073232;28;20025;-71
2022/01/22 04:08:28;;;;;;;34.90;19.55;;;5.80;99.90;;;;;;5072505;28;20029;-71
2022/01/22 04:10:48;;;;;;;35.45;20.48;;;5.80;99.90;;;;;;5089581;28;20027;-71
2022/01/22 04:13:17;;;;;;;43.45;18.60;;;5.70;99.90;;;;;;5093212;28;20040;-71
2022/01/22 04:15:45;;;;;;;36.00;19.17;;;5.80;99.90;;;;;;5093218;28;20468;-71
2022/01/22 04:28:59;;;;;;;40.40;20.80;;;5.70;99.90;;;;;;5094264;28;20039;-71
2022/01/22 04:31:25;;;;;;;41.42;21.00;;;5.70;99.90;;;;;;5094363;28;20039;-71
2022/01/22 04:33:51;;;;;;;33.95;20.75;;;5.80;99.90;;;;;;5093963;28;20035;-71
2022/01/22 04:36:19;;;;;;;37.15;21.10;;;5.80;99.90;;;;;;5094031;28;20025;-71
2022/01/22 04:38:46;;;;;;;34.63;20.70;;;5.80;99.90;;;;;;5092713;28;20061;-71
2022/01/22 04:41:11;;;;;;;38.00;21.98;;;5.90;99.90;;;;;;5092907;28;20023;-71
2022/01/22 04:43:40;;;;;;;43.65;23.23;;;5.80;99.90;;;;;;5092783;28;20024;-71
2022/01/22 04:56:57;;;;;;;39.40;22.85;;;5.90;99.90;;;;;;5093758;28;20472;-72
2022/01/22 04:59:23;;;;;;;41.47;22.25;;;6.10;99.90;;;;;;5092525;28;20024;-71
2022/01/22 05:01:50;;;;;;;45.13;23.77;;;6.10;99.90;;;;;;5092168;28;20464;-72
2022/01/22 05:04:27;;;;;;;42.70;22.90;;;6.10;99.90;;;;;;5093533;28;20023;-71
2022/01/22 05:07:15;;;;;;;37.80;22.60;;;5.90;99.90;;;;;;5092135;28;20031;-70
2022/01/22 05:09:59;;;;;;;39.33;22.83;;;5.80;99.90;;;;;;5083928;28;20024;-71
2022/01/22 05:12:24;;;;;;;37.03;23.42;;;5.90;99.90;;;;;;5073338;28;20107;-72
2022/01/22 05:14:50;;;;;;;41.08;23.85;;;6.10;99.90;;;;;;5055181;28;20037;-72
2022/01/22 05:17:18;;;;;;;38.00;23.67;;;6.00;99.90;;;;;;5072028;28;20021;-71
2022/01/22 05:19:58;;;;;;;38.40;23.75;;;6.10;99.90;;;;;;5070517;28;20428;-71
2022/01/22 05:22:41;;;;;;;37.97;23.15;;;6.00;99.90;;;;;;5071784;28;20473;-72
2022/01/22 05:25:12;;;;;;;39.60;23.00;;;5.90;99.90;;;;;;5072049;28;20051;-72
2022/01/22 05:28:10;;;;;;;36.65;19.73;;;5.80;99.90;;;;;;5089183;28;20370;-72
2022/01/22 05:39:00;;;;;;;55.03;25.45;;;5.80;99.90;;;;;;5091564;28;20035;-73
2022/01/22 05:41:25;;;;;;;46.35;25.13;;;6.00;99.90;;;;;;5093153;28;20028;-71
2022/01/22 05:43:51;;;;;;;44.35;25.75;;;5.90;99.90;;;;;;5076287;28;20386;-71
2022/01/22 05:46:17;;;;;;;46.45;25.77;;;5.90;99.90;;;;;;5072784;28;20048;-71
2022/01/22 05:48:43;;;;;;;56.65;27.75;;;5.90;99.90;;;;;;5072563;28;20028;-71
2022/01/22 05:51:09;;;;;;;58.08;26.40;;;5.90;99.90;;;;;;5071119;28;20074;-71
2022/01/22 06:01:48;;;;;;;46.35;27.02;;;5.80;99.90;;;;;;5071325;28;20029;-71
2022/01/22 06:04:19;;;;;;;48.97;27.90;;;5.80;99.90;;;;;;5072557;28;20940;-71
2022/01/22 06:06:48;;;;;;;53.42;27.58;;;5.80;99.90;;;;;;5071074;28;20031;-71
2022/01/22 06:09:14;;;;;;;51.78;26.15;;;5.80;99.90;;;;;;5074228;28;20025;-71
2022/01/22 06:11:54;;;;;;;48.25;26.85;;;5.80;99.90;;;;;;5091440;28;20028;-71
2022/01/22 06:14:23;;;;;;;54.10;27.70;;;6.10;99.90;;;;;;5091227;28;20044;-71
2022/01/22 06:16:49;;;;;;;42.63;25.42;;;6.00;99.90;;;;;;5091507;28;20024;-71
2022/01/22 06:19:15;;;;;;;46.83;26.48;;;6.00;99.90;;;;;;5092732;28;20040;-71
2022/01/22 06:21:41;;;;;;;50.05;26.83;;;6.10;99.90;;;;;;5074273;28;20089;-71
2022/01/22 06:24:07;;;;;;;46.97;25.95;;;6.10;99.90;;;;;;5091132;28;20028;-71
2022/01/22 06:26:35;;;;;;;46.38;27.73;;;6.10;99.90;;;;;;5091245;28;20533;-71
2022/01/22 06:29:02;;;;;;;48.17;25.50;;;6.10;99.90;;;;;;5091258;28;20029;-71
2022/01/22 06:31:28;;;;;;;51.17;26.20;;;6.10;99.90;;;;;;5094583;28;20111;-71
2022/01/22 06:33:58;;;;;;;44.05;25.67;;;6.10;99.90;;;;;;5095035;28;20036;-71
2022/01/22 06:36:25;;;;;;;42.30;24.63;;;6.10;99.90;;;;;;5094932;28;20024;-71
2022/01/22 06:38:58;;;;;;;48.85;25.60;;;6.10;99.90;;;;;;5095174;28;20472;-71
2022/01/22 06:41:53;;;;;;;43.83;25.23;;;6.10;99.90;;;;;;5023896;28;20439;-71
2022/01/22 06:44:34;;;;;;;46.80;24.55;;;6.20;99.90;;;;;;5096486;28;20453;-71
2022/01/22 06:47:23;;;;;;;48.83;23.77;;;6.20;99.90;;;;;;5076681;28;20040;-71
2022/01/22 06:49:58;;;;;;;48.47;24.40;;;6.30;99.90;;;;;;5095014;28;20059;-71
2022/01/22 06:52:24;;;;;;;45.80;24.63;;;6.20;99.90;;;;;;5096078;28;20083;-71
2022/01/22 06:54:54;;;;;;;42.30;23.80;;;6.20;99.90;;;;;;5094950;28;20024;-71
2022/01/22 06:57:20;;;;;;;50.25;24.30;;;6.20;99.90;;;;;;5094738;28;20426;-71
2022/01/22 06:59:47;;;;;;;47.15;24.30;;;6.20;99.90;;;;;;5094868;28;20032;-71
2022/01/22 07:02:13;;;;;;;47.20;24.40;;;6.20;99.90;;;;;;5094636;28;20141;-71
2022/01/22 07:04:39;;;;;;;42.80;23.13;;;6.30;99.90;;;;;;5094444;28;20066;-71
2022/01/22 07:07:24;;;;;;;43.92;24.52;;;6.20;99.90;;;;;;5095974;28;20149;-71
2022/01/22 07:09:50;;;;;;;43.17;21.38;;;6.30;99.90;;;;;;5074243;28;20035;-71
2022/01/22 07:12:16;;;;;;;40.03;24.30;;;6.30;99.90;;;;;;5073975;28;20024;-71
2022/01/22 07:14:45;;;;;;;40.60;23.52;;;6.30;99.90;;;;;;5075610;28;20461;-72
2022/01/22 07:17:12;;;;;;;46.25;23.35;;;6.30;99.90;;;;;;5074222;28;20056;-71
2022/01/22 07:19:43;;;;;;;42.17;23.63;;;6.30;99.90;;;;;;5073861;28;20435;-71
2022/01/22 07:25:09;;;;;;;41.08;24.92;;;6.30;99.90;;;;;;5073954;28;20025;-71
2022/01/22 07:27:35;;;;;;;42.97;23.98;;;6.30;99.90;;;;;;5073818;28;20078;-71
2022/01/22 07:30:01;;;;;;;52.70;25.10;;;6.30;99.90;;;;;;5090857;28;20028;-71
2022/01/22 07:32:34;;;;;;;43.28;22.80;;;6.30;99.90;;;;;;5091456;28;20016;-71
2022/01/22 07:35:01;;;;;;;48.95;24.70;;;6.40;99.90;;;;;;5085063;28;20424;-71
2022/01/22 07:37:27;;;;;;;44.08;24.17;;;6.40;99.90;;;;;;5090417;28;20031;-71
2022/01/22 07:39:59;;;;;;;38.38;23.23;;;6.30;99.90;;;;;;5077039;28;20441;-72
2022/01/22 07:42:45;;;;;;;39.65;22.50;;;6.40;99.90;;;;;;5082766;28;20070;-72
2022/01/22 07:45:30;;;;;;;47.88;23.88;;;6.40;99.90;;;;;;5072809;28;20040;-71
2022/01/22 07:48:07;;;;;;;43.72;23.10;;;6.40;99.90;;;;;;5070600;28;20032;-71
2022/01/22 07:50:51;;;;;;;44.67;23.20;;;6.40;99.90;;;;;;5072740;28;20035;-71
2022/01/22 07:53:17;;;;;;;44.72;22.83;;;6.40;99.90;;;;;;5072336;28;20040;-71
2022/01/22 07:55:42;;;;;;;44.42;22.58;;;6.40;99.90;;;;;;5073438;28;20024;-72
2022/01/22 07:58:10;;;;;;;43.10;23.20;;;6.40;99.90;;;;;;5071293;28;20021;-71
2022/01/22 08:00:35;;;;;;;45.65;23.25;;;6.40;99.90;;;;;;5072299;28;20021;-72
2022/01/22 08:03:01;;;;;;;44.90;24.88;;;6.40;99.90;;;;;;5091989;28;20077;-72
2022/01/22 08:06:03;;;;;;;44.92;22.98;;;6.60;99.90;;;;;;5093669;28;20341;-71
2022/01/22 08:08:48;;;;;;;40.30;22.10;;;6.60;99.90;;;;;;5093692;28;20392;-71
2022/01/22 08:11:37;;;;;;;43.03;23.13;;;6.60;99.90;;;;;;5070595;28;20080;-71
2022/01/22 08:14:03;;;;;;;40.25;22.63;;;6.50;99.90;;;;;;5072566;28;20060;-71
2022/01/22 08:16:28;;;;;;;41.17;22.05;;;6.50;99.90;;;;;;5072265;28;20436;-71
2022/01/22 08:18:54;;;;;;;46.83;23.02;;;6.50;99.90;;;;;;5072459;28;20032;-71
2022/01/22 08:21:20;;;;;;;43.15;22.73;;;6.60;99.90;;;;;;5072562;28;20072;-71
2022/01/22 08:24:26;;;;;;;42.15;23.40;;;6.60;99.90;;;;;;5031530;28;20033;-71
2022/01/22 08:29:34;;;;;;;38.80;22.33;;;6.70;99.90;;;;;;5055787;28;20025;-72
2022/01/22 08:37:22;;;;;;;38.28;23.05;;;6.60;99.90;;;;;;5070375;28;20036;-74
2022/01/22 08:39:47;;;;;;;47.97;21.25;;;6.70;99.90;;;;;;5072515;28;20031;-74
2022/01/22 08:42:13;;;;;;;43.83;21.75;;;6.60;99.90;;;;;;5072447;28;20028;-74
2022/01/22 08:44:42;;;;;;;38.83;22.88;;;6.70;99.90;;;;;;5073421;28;20538;-74
2022/01/22 08:47:14;;;;;;;34.92;21.60;;;6.70;99.90;;;;;;5072547;28;20028;-74
2022/01/22 08:49:41;;;;;;;39.03;22.30;;;6.70;99.90;;;;;;5055616;28;20036;-74
2022/01/22 08:52:13;;;;;;;36.20;22.38;;;6.80;99.90;;;;;;5072162;28;20033;-74
2022/01/22 08:54:41;;;;;;;43.25;22.63;;;6.90;99.90;;;;;;5071828;28;20513;-73
2022/01/22 08:57:10;;;;;;;35.42;21.15;;;6.80;99.90;;;;;;5072376;28;20435;-73
2022/01/22 08:59:45;;;;;;;38.42;22.10;;;6.70;99.90;;;;;;5071825;28;20507;-74
2022/01/22 09:02:14;;;;;;;39.97;22.35;;;6.70;99.90;;;;;;5072053;28;20469;-74
2022/01/22 09:04:53;;;;;;;37.17;24.40;;;6.70;99.90;;;;;;5071919;28;20021;-74
2022/01/22 09:07:37;;;;;;;39.67;23.63;;;6.70;99.90;;;;;;5073390;28;20054;-74
2022/01/22 09:10:26;;;;;;;42.53;23.45;;;6.70;99.90;;;;;;5084674;28;20020;-75
2022/01/22 09:13:21;;;;;;;52.17;26.77;;;6.80;99.90;;;;;;5092193;28;20039;-73
2022/01/22 09:16:04;;;;;;;42.35;23.42;;;6.90;99.90;;;;;;5091910;28;20376;-74
2022/01/22 09:18:30;;;;;;;38.85;23.65;;;6.90;99.90;;;;;;5092158;28;20036;-74
2022/01/22 09:23:27;;;;;;;42.42;25.67;;;7.10;99.90;;;;;;5092157;28;20377;-73
2022/01/22 09:25:53;;;;;;;39.22;24.50;;;7.00;99.90;;;;;;5091822;28;20377;-74
2022/01/22 09:28:20;;;;;;;46.35;23.90;;;6.90;99.90;;;;;;5091550;28;20032;-73
2022/01/22 09:30:50;;;;;;;38.60;23.83;;;7.10;99.90;;;;;;5092098;28;20101;-73
2022/01/22 09:33:16;;;;;;;40.35;25.25;;;7.00;99.90;;;;;;5091826;28;20032;-74
2022/01/22 09:36:03;;;;;;;52.08;26.25;;;6.90;99.90;;;;;;5091722;28;20411;-74
2022/01/22 09:38:38;;;;;;;38.83;23.88;;;6.80;99.90;;;;;;5092045;28;20028;-74
2022/01/22 09:41:30;;;;;;;59.05;24.70;;;6.80;99.90;;;;;;5091662;28;20026;-74
2022/01/22 09:44:15;;;;;;;46.30;25.50;;;6.70;99.90;;;;;;5092658;28;20457;-74
2022/01/22 09:47:03;;;;;;;47.63;25.77;;;6.70;99.90;;;;;;5091594;28;20028;-74
2022/01/22 09:49:59;;;;;;;44.90;26.83;;;6.60;99.90;;;;;;5083892;28;20111;-74
2022/01/22 09:52:52;;;;;;;43.50;24.63;;;6.80;99.90;;;;;;5091357;28;20039;-74
2022/01/22 09:55:22;;;;;;;44.22;25.90;;;6.80;99.90;;;;;;5091619;28;20503;-73
2022/01/22 09:58:07;;;;;;;46.65;25.98;;;6.80;99.90;;;;;;5092631;28;20043;-74
2022/01/22 10:01:37;;;;;;;43.03;25.15;;;6.80;99.90;;;;;;5069574;28;20583;-74
2022/01/22 10:04:34;;;;;;;33.03;19.90;;;6.80;99.90;;;;;;5041839;28;20036;-74
2022/01/22 10:07:23;;;;;;;46.45;27.23;;;6.70;99.90;;;;;;5097244;28;20067;-74
2022/01/22 10:10:03;;;;;;;39.20;24.55;;;6.90;99.90;;;;;;5075152;28;20055;-74
2022/01/22 10:12:47;;;;;;;43.90;24.55;;;6.80;99.90;;;;;;5076349;28;20033;-74
2022/01/22 10:15:34;;;;;;;37.88;25.02;;;6.80;99.90;;;;;;5080874;28;20582;-73
2022/01/22 10:18:02;;;;;;;39.00;25.50;;;6.80;99.90;;;;;;5096784;28;20031;-73
2022/01/22 10:20:41;;;;;;;43.53;25.17;;;6.80;99.90;;;;;;5098013;28;20036;-74
2022/01/22 10:23:18;;;;;;;44.88;24.67;;;6.90;99.90;;;;;;5095405;28;20437;-74
2022/01/22 10:25:51;;;;;;;41.33;24.85;;;7.10;99.90;;;;;;5095501;28;20484;-74
2022/01/22 10:28:23;;;;;;;38.03;24.02;;;6.90;99.90;;;;;;5096345;28;20028;-74
2022/01/22 10:31:07;;;;;;;48.00;26.88;;;6.90;99.90;;;;;;5096691;28;20024;-74
2022/01/22 10:34:10;;;;;;;37.25;25.02;;;6.90;99.90;;;;;;5086043;28;20033;-74
2022/01/22 10:36:59;;;;;;;36.60;23.77;;;7.00;99.90;;;;;;5096477;28;20046;-74
2022/01/22 10:39:42;;;;;;;37.25;23.35;;;7.00;99.90;;;;;;5096649;28;20111;-74
2022/01/22 10:42:22;;;;;;;38.85;23.35;;;7.10;99.90;;;;;;5097339;28;20063;-74
2022/01/22 10:44:50;;;;;;;41.65;23.80;;;7.10;99.90;;;;;;5096480;28;20047;-75
2022/01/22 10:47:22;;;;;;;40.40;24.00;;;7.10;99.90;;;;;;5096311;28;20027;-74
2022/01/22 10:49:48;;;;;;;42.08;24.30;;;7.10;99.90;;;;;;5094886;28;20431;-74
2022/01/22 10:52:14;;;;;;;45.75;24.73;;;7.10;99.90;;;;;;5095997;28;20032;-75
2022/01/22 10:54:40;;;;;;;50.63;27.63;;;7.20;99.90;;;;;;5096075;28;20096;-74
2022/01/22 10:57:12;;;;;;;40.67;25.48;;;7.10;99.90;;;;;;5094308;28;20024;-75
2022/01/22 10:59:44;;;;;;;;;;;7.20;99.90;;;;;;5096815;28;20392;-75
2022/01/22 11:02:10;;;;;;;41.58;25.63;;;7.10;99.90;;;;;;5094549;28;19915;-74
2022/01/22 11:04:36;;;;;;;44.08;24.92;;;7.00;99.90;;;;;;5077920;28;20066;-74
2022/01/22 11:07:04;;;;;;;42.28;25.80;;;6.90;99.90;;;;;;5095769;28;20066;-75
2022/01/22 11:09:31;;;;;;;47.90;26.30;;;6.90;99.90;;;;;;5089104;28;20025;-74
2022/01/22 11:11:59;;;;;;;44.30;25.52;;;6.90;99.90;;;;;;5075544;28;20033;-74
2022/01/22 11:14:28;;;;;;;42.30;24.83;;;6.80;99.90;;;;;;5075505;28;20039;-75
2022/01/22 11:16:54;;;;;;;39.25;25.17;;;6.90;99.90;;;;;;5075349;28;20029;-73
2022/01/22 11:19:23;;;;;;;44.88;26.40;;;6.90;99.90;;;;;;5075014;28;20050;-74
2022/01/22 11:21:52;;;;;;;41.17;24.63;;;6.90;99.90;;;;;;5075357;28;20032;-74
2022/01/22 11:24:23;;;;;;;39.72;26.05;;;6.80;99.90;;;;;;5074988;28;20083;-74
2022/01/22 11:27:03;;;;;;;43.10;26.27;;;6.90;99.90;;;;;;5085359;28;20020;-74
2022/01/22 11:29:51;;;;;;;37.45;26.50;;;6.80;99.90;;;;;;5095312;28;20059;-74
2022/01/22 11:32:20;;;;;;;43.30;25.77;;;6.70;99.90;;;;;;5095229;28;20039;-74
2022/01/22 11:34:49;;;;;;;44.10;26.95;;;6.70;99.90;;;;;;5095312;28;20036;-74
2022/01/22 11:37:26;;;;;;;38.20;26.90;;;6.70;99.90;;;;;;5094871;28;20028;-76
2022/01/22 11:40:13;;;;;;;41.53;25.80;;;6.80;99.90;;;;;;5094635;28;20035;-76
2022/01/22 11:43:11;;;;;;;46.13;25.83;;;6.80;99.90;;;;;;5094047;28;20054;-76
2022/01/22 11:45:51;;;;;;;41.67;25.27;;;6.80;99.90;;;;;;5082999;28;20119;-76
2022/01/22 11:48:26;;;;;;;48.13;25.60;;;6.80;99.90;;;;;;5093689;28;20044;-75
2022/01/22 11:50:54;;;;;;;41.65;26.00;;;7.10;99.90;;;;;;5094575;28;20032;-76
2022/01/22 11:53:30;;;;;;;42.78;27.02;;;7.30;99.90;;;;;;5094266;28;20079;-76
2022/01/22 11:56:07;;;;;;;44.40;26.60;;;7.10;99.90;;;;;;5076799;28;20106;-76
2022/01/22 11:59:03;;;;;;;41.58;27.98;;;7.00;99.90;;;;;;5093577;28;20043;-75
2022/01/22 12:01:40;;;;;;;42.25;27.92;;;6.80;99.90;;;;;;5094615;28;20549;-77
2022/01/22 12:04:08;;;;;;;49.53;28.55;;;6.80;99.90;;;;;;5094588;28;20028;-75
2022/01/22 12:06:35;;;;;;;44.17;26.02;;;6.80;99.90;;;;;;5094829;28;20097;-76
2022/01/22 12:09:16;;;;;;;45.17;29.13;;;6.80;99.90;;;;;;5092675;28;20024;-76
2022/01/22 12:14:54;;;;;;;42.00;27.48;;;6.90;99.90;;;;;;5074189;28;20045;-76
2022/01/22 12:17:47;;;;;;;43.13;28.73;;;6.80;99.90;;;;;;5074269;28;20033;-76
2022/01/22 12:23:18;;;;;;;45.97;26.58;;;7.00;99.90;;;;;;5073600;28;20040;-77
2022/01/22 12:25:43;;;;;;;41.22;27.25;;;7.00;99.90;;;;;;5073869;28;20028;-77
2022/01/22 12:28:13;;;;;;;40.38;26.63;;;6.90;99.90;;;;;;5093795;28;20508;-76
2022/01/22 12:30:51;;;;;;;41.35;24.20;;;6.90;99.90;;;;;;5094289;28;20046;-76
2022/01/22 12:33:29;;;;;;;44.22;27.30;;;6.90;99.90;;;;;;5094031;28;20036;-75
2022/01/22 12:36:00;;;;;;;51.90;27.10;;;6.80;99.90;;;;;;5094222;28;20392;-76
2022/01/22 12:44:46;;;;;;;42.60;27.08;;;7.00;99.90;;;;;;5094071;28;20071;-76
2022/01/22 12:47:10;;;;;;;41.75;25.85;;;6.90;99.90;;;;;;5093363;28;20040;-77
2022/01/22 12:49:37;;;;;;;40.83;23.58;;;6.90;99.90;;;;;;5093729;28;20035;-77
2022/01/22 12:52:06;;;;;;;38.15;25.05;;;7.00;99.90;;;;;;5093470;28;20491;-73
2022/01/22 12:54:42;;;;;;;39.35;26.50;;;6.90;99.90;;;;;;5093515;28;20086;-73
2022/01/22 12:57:13;;;;;;;39.80;25.17;;;6.90;99.90;;;;;;5092587;28;20031;-75
2022/01/22 13:00:06;;;;;;;35.80;24.95;;;6.90;99.90;;;;;;5093517;28;20032;-75
2022/01/22 13:02:45;;;;;;;43.35;25.05;;;6.80;99.90;;;;;;5093521;28;20032;-74
2022/01/22 13:05:18;;;;;;;43.33;25.65;;;7.00;99.90;;;;;;5080899;28;20469;-76
2022/01/22 13:08:06;;;;;;;46.55;27.75;;;7.00;99.90;;;;;;5093250;28;20472;-76
2022/01/22 13:10:53;;;;;;;39.67;27.13;;;7.00;99.90;;;;;;5076963;28;20127;-75
2022/01/22 13:13:20;;;;;;;50.17;27.05;;;7.10;99.90;;;;;;5071673;28;20439;-75
2022/01/22 13:15:45;;;;;;;41.88;28.73;;;7.20;99.90;;;;;;5073068;28;20037;-76
2022/01/22 13:18:11;;;;;;;46.15;27.38;;;7.10;99.90;;;;;;5073238;28;20020;-75
2022/01/22 13:20:37;;;;;;;45.83;27.00;;;7.20;99.90;;;;;;5072688;28;20039;-75
2022/01/22 13:23:18;;;;;;;45.97;28.85;;;7.20;99.90;;;;;;5073439;28;20028;-76
2022/01/22 13:25:44;;;;;;;43.47;28.98;;;7.30;99.90;;;;;;5073477;28;20024;-76
2022/01/22 13:28:12;;;;;;;44.28;29.10;;;7.10;99.90;;;;;;5093337;28;20031;-73
2022/01/22 13:30:53;;;;;;;40.28;26.70;;;7.10;99.90;;;;;;5093384;28;20020;-74
2022/01/22 13:33:27;;;;;;;45.83;27.88;;;7.10;99.90;;;;;;5091872;28;20118;-75
2022/01/22 13:49:36;;;;;;;43.90;25.20;;;7.10;99.90;;;;;;5092975;28;20596;-77
2022/01/22 13:52:04;;;;;;;46.10;26.85;;;7.10;99.90;;;;;;5092724;28;20123;-76
2022/01/22 13:54:38;;;;;;;44.67;28.55;;;7.20;99.90;;;;;;5092905;28;20507;-77
2022/01/22 13:57:08;;;;;;;39.65;26.27;;;7.10;99.90;;;;;;5091303;28;20051;-76
2022/01/22 13:59:46;;;;;;;39.90;26.33;;;7.10;99.90;;;;;;5093119;28;20099;-76
2022/01/22 14:04:51;;;;;;;47.63;29.00;;;7.10;99.90;;;;;;5092791;28;20032;-76
2022/01/22 14:07:30;;;;;;;46.88;27.60;;;7.00;99.90;;;;;;5092722;28;20036;-76
2022/01/22 14:10:16;;;;;;;47.38;26.40;;;7.10;99.90;;;;;;5084125;28;20480;-77
2022/01/22 14:12:52;;;;;;;42.40;26.25;;;7.10;99.90;;;;;;5071316;28;20477;-77
2022/01/22 14:15:30;;;;;;;37.97;24.00;;;7.10;99.90;;;;;;5071276;28;20094;-77
2022/01/22 14:18:09;;;;;;;35.08;22.83;;;7.00;99.90;;;;;;5071296;28;20036;-76
2022/01/22 14:20:37;;;;;;;37.60;23.27;;;7.10;99.90;;;;;;5072581;28;20036;-76
2022/01/22 14:23:09;;;;;;;42.40;24.17;;;7.00;99.90;;;;;;5072426;28;20027;-76
2022/01/22 14:25:56;;;;;;;43.78;22.83;;;7.00;99.90;;;;;;5072716;28;20141;-76
2022/01/22 14:28:42;;;;;;;40.05;24.10;;;7.00;99.90;;;;;;5092685;28;20107;-77
2022/01/22 14:31:26;;;;;;;33.72;24.00;;;7.00;99.90;;;;;;5092205;28;20048;-77
2022/01/22 14:33:54;;;;;;;38.22;24.15;;;7.00;99.90;;;;;;5091956;28;20040;-75
2022/01/22 14:36:23;;;;;;;41.28;23.90;;;7.10;99.90;;;;;;5092673;28;20030;-77
2022/01/22 14:38:55;;;;;;;35.83;24.33;;;7.00;99.90;;;;;;5093176;28;20032;-76
2022/01/22 14:46:57;;;;;;;41.85;25.40;;;7.00;99.90;;;;;;5092443;28;20032;-77
2022/01/22 14:49:48;;;;;;;39.58;25.38;;;7.00;99.90;;;;;;5082232;28;20096;-76
2022/01/22 14:52:17;;;;;;;43.53;27.20;;;7.10;99.90;;;;;;5073608;28;20048;-75
2022/01/22 14:54:45;;;;;;;35.05;24.50;;;7.20;99.90;;;;;;5075894;28;20032;-77
2022/01/22 14:57:13;;;;;;;41.42;25.73;;;7.10;99.90;;;;;;5075836;28;20036;-77
2022/01/22 14:59:40;;;;;;;42.60;25.45;;;7.00;99.90;;;;;;5075861;28;20091;-73
2022/01/22 15:02:06;;;;;;;39.22;24.90;;;6.90;99.90;;;;;;5075588;28;20032;-75
2022/01/22 15:04:34;;;;;;;42.45;23.52;;;6.90;99.90;;;;;;5057365;28;20027;-76
2022/01/22 15:07:02;;;;;;;38.47;25.30;;;6.90;99.90;;;;;;5075494;28;20039;-76
2022/01/22 15:09:32;;;;;;;40.50;24.52;;;6.80;99.90;;;;;;5079656;28;20099;-75
2022/01/22 15:11:59;;;;;;;37.25;25.13;;;7.00;99.90;;;;;;5096319;28;20091;-73
2022/01/22 15:14:27;;;;;;;37.83;24.08;;;7.00;99.90;;;;;;5095866;28;20032;-77
2022/01/22 15:19:32;;;;;;;42.47;24.75;;;6.70;99.90;;;;;;5095195;28;20028;-76
2022/01/22 15:21:58;;;;;;;39.53;24.13;;;6.70;99.90;;;;;;5094363;28;20503;-77
2022/01/22 15:24:25;;;;;;;41.53;23.30;;;6.70;99.90;;;;;;5094387;28;20028;-77
2022/01/22 15:26:52;;;;;;;39.33;25.92;;;6.70;99.90;;;;;;5095511;28;20465;-77